ASR weather

Kayseri Erkilet Airport
Kayseri, Kayseri Province, Turkey

Public forecast

Using degrees Celsius for public forecast. Weather courtesy of forecast.io.

Current aviation weather report (METAR) for Kayseri Erkilet Airport

Retrieved 2019/12/07 21:20 UTC (10 minutes ago):

LTAU 072120Z 13007KT 9000 BKN009 M02/M04 Q1018 NOSIG RMK RWY07 09008KT

Aviation forecast (TAF) for Kayseri Erkilet Airport

Retrieved 2019/12/07 18:00 UTC (3 hours ago):

TAF LTAU 071640Z 0718/0818 VRB02KT 6000 BKN009 BECMG 0809/0812 SCT010 BKN025